sensor_id;sensor_type;location;lat;lon;timestamp;pressure;altitude;pressure_sealevel;temperature;humidity
8703;BME280;9002;42.708;23.186;2023-10-08T00:02:10;95428.31;;;16.64;42.51
8703;BME280;9002;42.708;23.186;2023-10-08T00:04:39;95440.19;;;17.05;41.96
8703;BME280;9002;42.708;23.186;2023-10-08T00:07:09;95404.09;;;16.75;42.49
8703;BME280;9002;42.708;23.186;2023-10-08T00:09:37;95433.72;;;16.69;43.38
8703;BME280;9002;42.708;23.186;2023-10-08T00:12:05;95422.25;;;16.64;43.26
8703;BME280;9002;42.708;23.186;2023-10-08T00:14:32;95413.41;;;16.58;42.94
8703;BME280;9002;42.708;23.186;2023-10-08T00:17:10;95423.19;;;16.82;42.70
8703;BME280;9002;42.708;23.186;2023-10-08T00:19:37;95421.44;;;16.63;43.46
8703;BME280;9002;42.708;23.186;2023-10-08T00:22:05;95416.84;;;16.65;43.32
8703;BME280;9002;42.708;23.186;2023-10-08T00:24:35;95423.53;;;16.93;42.83
8703;BME280;9002;42.708;23.186;2023-10-08T00:27:07;95415.97;;;16.78;43.16
8703;BME280;9002;42.708;23.186;2023-10-08T00:29:34;95414.53;;;17.27;42.16
8703;BME280;9002;42.708;23.186;2023-10-08T00:32:05;95412.25;;;16.99;42.75
8703;BME280;9002;42.708;23.186;2023-10-08T00:34:39;95414.94;;;16.86;43.36
8703;BME280;9002;42.708;23.186;2023-10-08T00:37:08;95399.75;;;16.56;43.61
8703;BME280;9002;42.708;23.186;2023-10-08T00:39:36;95410.28;;;16.30;43.36
8703;BME280;9002;42.708;23.186;2023-10-08T00:42:06;95418.31;;;16.28;43.15
8703;BME280;9002;42.708;23.186;2023-10-08T00:44:34;95398.47;;;16.14;43.49
8703;BME280;9002;42.708;23.186;2023-10-08T00:47:07;95365.16;;;16.03;43.31
8703;BME280;9002;42.708;23.186;2023-10-08T00:49:38;95412.50;;;16.19;43.49
8703;BME280;9002;42.708;23.186;2023-10-08T00:52:15;95403.50;;;16.15;43.60
8703;BME280;9002;42.708;23.186;2023-10-08T00:54:55;95400.16;;;16.60;42.62
8703;BME280;9002;42.708;23.186;2023-10-08T00:57:33;95381.81;;;16.02;43.65
8703;BME280;9002;42.708;23.186;2023-10-08T01:00:03;95388.28;;;15.79;43.85
8703;BME280;9002;42.708;23.186;2023-10-08T01:02:40;95398.09;;;16.04;44.00
8703;BME280;9002;42.708;23.186;2023-10-08T01:05:15;95395.09;;;15.87;44.33
8703;BME280;9002;42.708;23.186;2023-10-08T01:07:45;95402.28;;;16.11;43.94
8703;BME280;9002;42.708;23.186;2023-10-08T01:10:14;95396.50;;;16.03;43.86
8703;BME280;9002;42.708;23.186;2023-10-08T01:12:45;95398.00;;;16.37;43.04
8703;BME280;9002;42.708;23.186;2023-10-08T01:15:21;95398.22;;;16.22;42.97
8703;BME280;9002;42.708;23.186;2023-10-08T01:17:54;95372.00;;;15.84;43.74
8703;BME280;9002;42.708;23.186;2023-10-08T01:20:27;95389.69;;;15.82;43.92
8703;BME280;9002;42.708;23.186;2023-10-08T01:23:04;95392.03;;;16.16;43.33
8703;BME280;9002;42.708;23.186;2023-10-08T01:25:36;95389.44;;;16.16;43.33
8703;BME280;9002;42.708;23.186;2023-10-08T01:28:04;95395.28;;;15.99;43.63
8703;BME280;9002;42.708;23.186;2023-10-08T01:30:35;95394.06;;;16.01;43.41
8703;BME280;9002;42.708;23.186;2023-10-08T01:33:06;95394.22;;;16.26;43.48
8703;BME280;9002;42.708;23.186;2023-10-08T01:35:36;95395.50;;;15.91;43.98
8703;BME280;9002;42.708;23.186;2023-10-08T01:38:05;95393.66;;;16.04;43.51
8703;BME280;9002;42.708;23.186;2023-10-08T01:40:39;95402.13;;;15.80;43.93
8703;BME280;9002;42.708;23.186;2023-10-08T01:43:06;95404.34;;;15.57;44.72
8703;BME280;9002;42.708;23.186;2023-10-08T01:45:36;95378.00;;;15.18;45.82
8703;BME280;9002;42.708;23.186;2023-10-08T01:48:06;95396.31;;;15.78;44.29
8703;BME280;9002;42.708;23.186;2023-10-08T01:50:35;95403.72;;;15.74;44.27
8703;BME280;9002;42.708;23.186;2023-10-08T01:53:04;95382.19;;;15.13;44.79
8703;BME280;9002;42.708;23.186;2023-10-08T01:55:35;95391.25;;;15.30;45.38
8703;BME280;9002;42.708;23.186;2023-10-08T01:58:12;95400.06;;;15.29;45.17
8703;BME280;9002;42.708;23.186;2023-10-08T02:00:42;95395.81;;;14.95;45.88
8703;BME280;9002;42.708;23.186;2023-10-08T02:03:11;95398.63;;;14.94;46.78
8703;BME280;9002;42.708;23.186;2023-10-08T02:05:39;95398.06;;;15.31;45.89
8703;BME280;9002;42.708;23.186;2023-10-08T02:08:09;95401.06;;;15.28;45.35
8703;BME280;9002;42.708;23.186;2023-10-08T02:10:37;95383.44;;;15.30;45.23
8703;BME280;9002;42.708;23.186;2023-10-08T02:13:05;95406.09;;;15.30;45.41
8703;BME280;9002;42.708;23.186;2023-10-08T02:15:34;95347.69;;;14.91;45.24
8703;BME280;9002;42.708;23.186;2023-10-08T02:18:02;95370.78;;;15.20;45.55
8703;BME280;9002;42.708;23.186;2023-10-08T02:20:30;95354.91;;;15.09;45.80
8703;BME280;9002;42.708;23.186;2023-10-08T02:22:57;95392.25;;;15.23;45.87
8703;BME280;9002;42.708;23.186;2023-10-08T02:25:26;95393.03;;;15.16;46.39
8703;BME280;9002;42.708;23.186;2023-10-08T02:27:53;95361.97;;;15.28;45.93
8703;BME280;9002;42.708;23.186;2023-10-08T02:30:20;95392.13;;;14.76;47.59
8703;BME280;9002;42.708;23.186;2023-10-08T02:32:47;95381.66;;;14.63;47.39
8703;BME280;9002;42.708;23.186;2023-10-08T02:35:15;95340.00;;;14.63;46.92
8703;BME280;9002;42.708;23.186;2023-10-08T02:37:42;95374.06;;;14.62;47.30
8703;BME280;9002;42.708;23.186;2023-10-08T02:40:11;95372.16;;;14.90;46.92
8703;BME280;9002;42.708;23.186;2023-10-08T02:42:47;95378.47;;;14.61;47.83
8703;BME280;9002;42.708;23.186;2023-10-08T02:45:15;95381.97;;;14.88;47.06
8703;BME280;9002;42.708;23.186;2023-10-08T02:47:42;95386.41;;;15.01;46.94
8703;BME280;9002;42.708;23.186;2023-10-08T02:50:11;95389.38;;;14.84;47.24
8703;BME280;9002;42.708;23.186;2023-10-08T02:52:42;95383.81;;;15.14;46.74
8703;BME280;9002;42.708;23.186;2023-10-08T02:55:10;95382.94;;;14.80;47.41
8703;BME280;9002;42.708;23.186;2023-10-08T02:57:50;95387.94;;;14.82;47.40
8703;BME280;9002;42.708;23.186;2023-10-08T03:00:17;95390.56;;;14.89;46.99
8703;BME280;9002;42.708;23.186;2023-10-08T03:02:46;95392.63;;;15.00;47.09
8703;BME280;9002;42.708;23.186;2023-10-08T03:05:13;95400.09;;;14.62;47.98
8703;BME280;9002;42.708;23.186;2023-10-08T03:07:42;95390.59;;;15.08;47.67
8703;BME280;9002;42.708;23.186;2023-10-08T03:10:10;95394.50;;;14.65;48.91
8703;BME280;9002;42.708;23.186;2023-10-08T03:12:44;95354.97;;;14.41;48.94
8703;BME280;9002;42.708;23.186;2023-10-08T03:15:15;95378.56;;;14.88;47.74
8703;BME280;9002;42.708;23.186;2023-10-08T03:17:54;95383.59;;;14.96;47.48
8703;BME280;9002;42.708;23.186;2023-10-08T03:20:23;95385.34;;;14.82;47.51
8703;BME280;9002;42.708;23.186;2023-10-08T03:23:08;95346.19;;;14.56;47.74
8703;BME280;9002;42.708;23.186;2023-10-08T03:25:50;95368.97;;;14.47;48.63
8703;BME280;9002;42.708;23.186;2023-10-08T03:28:22;95359.75;;;14.99;47.57
8703;BME280;9002;42.708;23.186;2023-10-08T03:30:52;95387.38;;;14.93;47.50
8703;BME280;9002;42.708;23.186;2023-10-08T03:33:28;95382.16;;;14.86;47.72
8703;BME280;9002;42.708;23.186;2023-10-08T03:36:00;95336.41;;;14.64;48.17
8703;BME280;9002;42.708;23.186;2023-10-08T03:38:34;95373.91;;;14.76;48.46
8703;BME280;9002;42.708;23.186;2023-10-08T03:41:09;95350.03;;;14.66;48.30
8703;BME280;9002;42.708;23.186;2023-10-08T03:43:42;95328.59;;;14.64;48.21
8703;BME280;9002;42.708;23.186;2023-10-08T03:46:20;95356.91;;;14.87;47.93
8703;BME280;9002;42.708;23.186;2023-10-08T03:48:49;95345.66;;;14.73;47.78
8703;BME280;9002;42.708;23.186;2023-10-08T03:51:17;95363.28;;;14.78;48.07
8703;BME280;9002;42.708;23.186;2023-10-08T03:53:46;95353.50;;;14.86;48.13
8703;BME280;9002;42.708;23.186;2023-10-08T03:56:27;95306.03;;;14.30;48.17
8703;BME280;9002;42.708;23.186;2023-10-08T03:58:55;95363.56;;;14.42;48.94
8703;BME280;9002;42.708;23.186;2023-10-08T04:01:27;95357.00;;;14.59;48.75
8703;BME280;9002;42.708;23.186;2023-10-08T04:03:58;95345.63;;;14.67;48.23
8703;BME280;9002;42.708;23.186;2023-10-08T04:06:27;95350.72;;;15.08;47.59
8703;BME280;9002;42.708;23.186;2023-10-08T04:09:04;95349.91;;;14.94;47.90
8703;BME280;9002;42.708;23.186;2023-10-08T04:11:50;95351.47;;;14.75;48.37
8703;BME280;9002;42.708;23.186;2023-10-08T04:14:22;95359.94;;;14.97;47.69
8703;BME280;9002;42.708;23.186;2023-10-08T04:16:51;95354.72;;;15.04;47.62
8703;BME280;9002;42.708;23.186;2023-10-08T04:19:18;95346.69;;;15.05;47.90
8703;BME280;9002;42.708;23.186;2023-10-08T04:21:46;95337.25;;;14.84;48.35
8703;BME280;9002;42.708;23.186;2023-10-08T04:24:24;95348.31;;;15.13;47.91
8703;BME280;9002;42.708;23.186;2023-10-08T04:26:55;95351.50;;;14.95;48.16
8703;BME280;9002;42.708;23.186;2023-10-08T04:29:28;95351.50;;;14.89;48.31
8703;BME280;9002;42.708;23.186;2023-10-08T04:31:59;95347.13;;;15.22;47.71
8703;BME280;9002;42.708;23.186;2023-10-08T04:34:33;95272.47;;;14.42;47.92
8703;BME280;9002;42.708;23.186;2023-10-08T04:37:00;95313.16;;;14.69;48.06
8703;BME280;9002;42.708;23.186;2023-10-08T04:39:29;95357.91;;;14.86;48.32
8703;BME280;9002;42.708;23.186;2023-10-08T04:41:58;95341.28;;;14.94;48.02
8703;BME280;9002;42.708;23.186;2023-10-08T04:44:32;95349.25;;;14.79;48.55
8703;BME280;9002;42.708;23.186;2023-10-08T04:47:01;95364.78;;;14.52;48.79
8703;BME280;9002;42.708;23.186;2023-10-08T04:49:32;95371.00;;;14.51;49.14
8703;BME280;9002;42.708;23.186;2023-10-08T04:52:02;95371.50;;;14.81;48.36
8703;BME280;9002;42.708;23.186;2023-10-08T04:54:34;95358.13;;;14.91;48.03
8703;BME280;9002;42.708;23.186;2023-10-08T04:57:06;95346.22;;;14.62;48.39
8703;BME280;9002;42.708;23.186;2023-10-08T04:59:41;95358.00;;;14.58;48.78
8703;BME280;9002;42.708;23.186;2023-10-08T05:02:10;95327.44;;;14.26;49.11
8703;BME280;9002;42.708;23.186;2023-10-08T05:04:47;95355.19;;;14.53;48.67
8703;BME280;9002;42.708;23.186;2023-10-08T05:07:32;95366.38;;;14.47;48.87
8703;BME280;9002;42.708;23.186;2023-10-08T05:10:22;95361.09;;;14.34;49.63
8703;BME280;9002;42.708;23.186;2023-10-08T05:13:07;95367.06;;;14.21;50.63
8703;BME280;9002;42.708;23.186;2023-10-08T05:15:42;95368.63;;;14.15;51.16
8703;BME280;9002;42.708;23.186;2023-10-08T05:18:28;95358.66;;;13.84;51.27
8703;BME280;9002;42.708;23.186;2023-10-08T05:21:24;95366.59;;;13.76;52.21
8703;BME280;9002;42.708;23.186;2023-10-08T05:24:00;95373.22;;;13.79;52.27
8703;BME280;9002;42.708;23.186;2023-10-08T05:26:39;95367.19;;;14.13;51.58
8703;BME280;9002;42.708;23.186;2023-10-08T05:29:10;95381.34;;;14.38;50.62
8703;BME280;9002;42.708;23.186;2023-10-08T05:31:54;95381.47;;;14.24;50.87
8703;BME280;9002;42.708;23.186;2023-10-08T05:34:47;95386.06;;;14.21;50.94
8703;BME280;9002;42.708;23.186;2023-10-08T05:37:36;95353.50;;;14.32;50.07
8703;BME280;9002;42.708;23.186;2023-10-08T05:40:08;95337.06;;;14.32;49.84
8703;BME280;9002;42.708;23.186;2023-10-08T05:42:46;95353.81;;;14.57;49.24
8703;BME280;9002;42.708;23.186;2023-10-08T05:45:26;95383.41;;;14.43;49.83
8703;BME280;9002;42.708;23.186;2023-10-08T05:47:56;95365.59;;;14.53;49.55
8703;BME280;9002;42.708;23.186;2023-10-08T05:50:40;95386.31;;;14.74;49.31
8703;BME280;9002;42.708;23.186;2023-10-08T05:53:20;95375.84;;;14.61;49.25
8703;BME280;9002;42.708;23.186;2023-10-08T05:56:08;95392.75;;;14.78;49.26
8703;BME280;9002;42.708;23.186;2023-10-08T05:58:53;95390.97;;;14.85;49.13
8703;BME280;9002;42.708;23.186;2023-10-08T06:01:40;95397.25;;;15.17;48.37
8703;BME280;9002;42.708;23.186;2023-10-08T06:04:07;95398.22;;;15.10;49.22
8703;BME280;9002;42.708;23.186;2023-10-08T06:06:53;95395.84;;;15.15;48.52
8703;BME280;9002;42.708;23.186;2023-10-08T06:09:37;95384.66;;;14.60;49.91
8703;BME280;9002;42.708;23.186;2023-10-08T06:12:05;95367.59;;;14.51;49.69
8703;BME280;9002;42.708;23.186;2023-10-08T06:14:38;95373.09;;;14.76;49.53
8703;BME280;9002;42.708;23.186;2023-10-08T06:17:33;95369.75;;;14.95;49.05
8703;BME280;9002;42.708;23.186;2023-10-08T06:20:10;95377.19;;;15.11;48.85
8703;BME280;9002;42.708;23.186;2023-10-08T06:22:43;95359.16;;;15.23;48.11
8703;BME280;9002;42.708;23.186;2023-10-08T06:25:09;95376.22;;;15.45;47.93
8703;BME280;9002;42.708;23.186;2023-10-08T06:27:43;95379.63;;;15.52;47.50
8703;BME280;9002;42.708;23.186;2023-10-08T06:30:13;95380.22;;;15.35;47.64
8703;BME280;9002;42.708;23.186;2023-10-08T06:32:43;95345.31;;;15.29;47.92
8703;BME280;9002;42.708;23.186;2023-10-08T06:35:11;95386.88;;;15.77;46.98
8703;BME280;9002;42.708;23.186;2023-10-08T06:37:45;95373.22;;;15.75;47.10
8703;BME280;9002;42.708;23.186;2023-10-08T06:40:15;95376.25;;;15.59;47.04
8703;BME280;9002;42.708;23.186;2023-10-08T06:43:17;95369.81;;;15.68;46.77
8703;BME280;9002;42.708;23.186;2023-10-08T06:45:47;95374.44;;;15.72;46.56
8703;BME280;9002;42.708;23.186;2023-10-08T06:48:18;95356.97;;;15.73;46.52
8703;BME280;9002;42.708;23.186;2023-10-08T06:50:46;95331.69;;;15.67;46.60
8703;BME280;9002;42.708;23.186;2023-10-08T06:53:14;95363.16;;;15.98;46.29
8703;BME280;9002;42.708;23.186;2023-10-08T06:55:43;95370.97;;;16.05;46.30
8703;BME280;9002;42.708;23.186;2023-10-08T06:58:10;95369.31;;;16.24;45.95
8703;BME280;9002;42.708;23.186;2023-10-08T07:00:41;95364.44;;;16.40;45.60
8703;BME280;9002;42.708;23.186;2023-10-08T07:03:14;95365.50;;;16.19;46.45
8703;BME280;9002;42.708;23.186;2023-10-08T07:05:44;95367.28;;;16.26;46.10
8703;BME280;9002;42.708;23.186;2023-10-08T07:08:20;95348.91;;;16.01;46.34
8703;BME280;9002;42.708;23.186;2023-10-08T07:10:49;95360.25;;;16.26;46.33
8703;BME280;9002;42.708;23.186;2023-10-08T07:13:16;95357.41;;;16.41;46.21
8703;BME280;9002;42.708;23.186;2023-10-08T07:15:46;95348.75;;;16.47;45.74
8703;BME280;9002;42.708;23.186;2023-10-08T07:18:14;95345.53;;;16.45;46.16
8703;BME280;9002;42.708;23.186;2023-10-08T07:20:47;95335.75;;;16.78;45.55
8703;BME280;9002;42.708;23.186;2023-10-08T07:23:19;95354.09;;;16.72;45.66
8703;BME280;9002;42.708;23.186;2023-10-08T07:25:53;95318.56;;;16.64;45.33
8703;BME280;9002;42.708;23.186;2023-10-08T07:28:24;95350.56;;;16.91;45.34
8703;BME280;9002;42.708;23.186;2023-10-08T07:30:53;95338.88;;;16.94;45.34
8703;BME280;9002;42.708;23.186;2023-10-08T07:33:20;95329.63;;;16.98;45.28
8703;BME280;9002;42.708;23.186;2023-10-08T07:35:51;95342.78;;;17.16;45.42
8703;BME280;9002;42.708;23.186;2023-10-08T07:38:25;95335.63;;;17.30;45.45
8703;BME280;9002;42.708;23.186;2023-10-08T07:40:55;95329.31;;;17.37;45.48
8703;BME280;9002;42.708;23.186;2023-10-08T07:43:23;95311.69;;;17.51;44.84
8703;BME280;9002;42.708;23.186;2023-10-08T07:45:50;95324.91;;;17.88;44.00
8703;BME280;9002;42.708;23.186;2023-10-08T07:48:20;95301.25;;;17.76;43.73
8703;BME280;9002;42.708;23.186;2023-10-08T07:50:55;95287.16;;;17.77;43.66
8703;BME280;9002;42.708;23.186;2023-10-08T07:53:23;95293.13;;;17.84;43.68
8703;BME280;9002;42.708;23.186;2023-10-08T07:55:50;95275.56;;;18.03;43.23
8703;BME280;9002;42.708;23.186;2023-10-08T07:58:18;95304.38;;;18.21;42.98
8703;BME280;9002;42.708;23.186;2023-10-08T08:00:45;95262.63;;;18.08;43.10
8703;BME280;9002;42.708;23.186;2023-10-08T08:03:22;95301.38;;;18.36;42.82
8703;BME280;9002;42.708;23.186;2023-10-08T08:08:29;95272.22;;;18.62;41.35
8703;BME280;9002;42.708;23.186;2023-10-08T08:10:56;95301.16;;;18.86;40.92
8703;BME280;9002;42.708;23.186;2023-10-08T08:13:29;95289.00;;;19.56;35.21
8703;BME280;9002;42.708;23.186;2023-10-08T08:15:56;95288.41;;;19.66;34.51
8703;BME280;9002;42.708;23.186;2023-10-08T08:18:26;95288.72;;;19.81;34.45
8703;BME280;9002;42.708;23.186;2023-10-08T08:20:59;95287.59;;;20.00;33.75
8703;BME280;9002;42.708;23.186;2023-10-08T08:23:31;95268.63;;;19.98;33.82
8703;BME280;9002;42.708;23.186;2023-10-08T08:25:58;95257.56;;;19.96;33.80
8703;BME280;9002;42.708;23.186;2023-10-08T08:28:38;95258.31;;;20.08;33.93
8703;BME280;9002;42.708;23.186;2023-10-08T08:31:06;95249.19;;;20.11;33.72
8703;BME280;9002;42.708;23.186;2023-10-08T08:33:43;95279.69;;;20.81;33.33
8703;BME280;9002;42.708;23.186;2023-10-08T08:36:22;95269.56;;;20.72;33.05
8703;BME280;9002;42.708;23.186;2023-10-08T08:38:50;95270.91;;;20.75;32.57
8703;BME280;9002;42.708;23.186;2023-10-08T08:41:17;95257.06;;;20.80;32.82
8703;BME280;9002;42.708;23.186;2023-10-08T08:43:47;95272.28;;;20.94;32.64
8703;BME280;9002;42.708;23.186;2023-10-08T08:46:15;95257.56;;;21.10;32.85
8703;BME280;9002;42.708;23.186;2023-10-08T08:48:44;95179.59;;;20.70;32.80
8703;BME280;9002;42.708;23.186;2023-10-08T08:51:13;95268.59;;;21.40;32.73
8703;BME280;9002;42.708;23.186;2023-10-08T08:53:40;95250.16;;;21.57;32.01
8703;BME280;9002;42.708;23.186;2023-10-08T08:56:08;95240.06;;;21.71;31.75
8703;BME280;9002;42.708;23.186;2023-10-08T08:58:36;95245.59;;;21.53;31.94
8703;BME280;9002;42.708;23.186;2023-10-08T09:01:06;95228.06;;;21.41;31.34
8703;BME280;9002;42.708;23.186;2023-10-08T09:03:35;95248.78;;;21.71;31.59
8703;BME280;9002;42.708;23.186;2023-10-08T09:06:04;95240.63;;;21.73;31.96
8703;BME280;9002;42.708;23.186;2023-10-08T09:08:34;95238.00;;;21.73;31.92
8703;BME280;9002;42.708;23.186;2023-10-08T09:11:02;95226.38;;;21.52;31.82
8703;BME280;9002;42.708;23.186;2023-10-08T09:13:31;95225.53;;;21.30;31.74
8703;BME280;9002;42.708;23.186;2023-10-08T09:16:03;95246.94;;;21.55;31.82
8703;BME280;9002;42.708;23.186;2023-10-08T09:18:33;95223.78;;;21.74;31.70
8703;BME280;9002;42.708;23.186;2023-10-08T09:21:15;95241.88;;;22.09;31.36
8703;BME280;9002;42.708;23.186;2023-10-08T09:23:48;95221.34;;;22.33;31.42
8703;BME280;9002;42.708;23.186;2023-10-08T09:26:17;95223.13;;;22.49;31.28
8703;BME280;9002;42.708;23.186;2023-10-08T09:28:45;95227.91;;;22.52;30.74
8703;BME280;9002;42.708;23.186;2023-10-08T09:31:14;95203.81;;;22.44;31.19
8703;BME280;9002;42.708;23.186;2023-10-08T09:33:43;95222.38;;;22.81;30.57
8703;BME280;9002;42.708;23.186;2023-10-08T09:36:10;95204.31;;;22.72;30.31
8703;BME280;9002;42.708;23.186;2023-10-08T09:38:46;95226.34;;;23.10;30.09
8703;BME280;9002;42.708;23.186;2023-10-08T09:41:14;95231.31;;;23.07;29.70
8703;BME280;9002;42.708;23.186;2023-10-08T09:43:41;95178.81;;;22.51;29.58
8703;BME280;9002;42.708;23.186;2023-10-08T09:46:15;95187.63;;;22.89;29.77
8703;BME280;9002;42.708;23.186;2023-10-08T09:48:49;95201.22;;;23.45;30.04
8703;BME280;9002;42.708;23.186;2023-10-08T09:51:18;95159.97;;;22.96;29.51
8703;BME280;9002;42.708;23.186;2023-10-08T09:54:02;95195.56;;;22.94;29.64
8703;BME280;9002;42.708;23.186;2023-10-08T09:56:31;95175.44;;;22.83;30.13
8703;BME280;9002;42.708;23.186;2023-10-08T09:59:00;95190.38;;;22.77;30.67
8703;BME280;9002;42.708;23.186;2023-10-08T10:01:35;95199.34;;;22.76;30.69
8703;BME280;9002;42.708;23.186;2023-10-08T10:04:22;95220.81;;;22.85;30.51
8703;BME280;9002;42.708;23.186;2023-10-08T10:06:51;95175.09;;;22.47;31.07
8703;BME280;9002;42.708;23.186;2023-10-08T10:09:22;95211.59;;;22.60;31.20
8703;BME280;9002;42.708;23.186;2023-10-08T10:11:50;95161.00;;;22.36;31.20
8703;BME280;9002;42.708;23.186;2023-10-08T10:14:18;95184.66;;;22.58;31.01
8703;BME280;9002;42.708;23.186;2023-10-08T10:16:48;95153.56;;;22.60;30.76
8703;BME280;9002;42.708;23.186;2023-10-08T10:21:46;95178.75;;;23.89;29.39
8703;BME280;9002;42.708;23.186;2023-10-08T10:24:28;95174.94;;;24.32;28.17
8703;BME280;9002;42.708;23.186;2023-10-08T10:27:10;95187.66;;;24.46;28.21
8703;BME280;9002;42.708;23.186;2023-10-08T10:29:37;95143.75;;;24.50;28.58
8703;BME280;9002;42.708;23.186;2023-10-08T10:32:05;95170.00;;;25.02;28.36
8703;BME280;9002;42.708;23.186;2023-10-08T10:34:32;95149.56;;;25.38;27.68
8703;BME280;9002;42.708;23.186;2023-10-08T10:37:00;95153.81;;;25.39;28.46
8703;BME280;9002;42.708;23.186;2023-10-08T10:39:36;95144.41;;;25.82;28.10
8703;BME280;9002;42.708;23.186;2023-10-08T10:42:07;95147.34;;;25.81;27.93
8703;BME280;9002;42.708;23.186;2023-10-08T10:44:46;95119.94;;;24.65;29.34
8703;BME280;9002;42.708;23.186;2023-10-08T10:47:15;95155.16;;;24.96;29.54
8703;BME280;9002;42.708;23.186;2023-10-08T10:50:08;95151.47;;;25.02;29.76
8703;BME280;9002;42.708;23.186;2023-10-08T10:52:52;95147.34;;;25.81;28.30
8703;BME280;9002;42.708;23.186;2023-10-08T10:55:21;95139.16;;;25.72;28.65
8703;BME280;9002;42.708;23.186;2023-10-08T10:57:49;95135.91;;;25.90;28.57
8703;BME280;9002;42.708;23.186;2023-10-08T11:00:25;95133.16;;;26.00;28.68
8703;BME280;9002;42.708;23.186;2023-10-08T11:03:10;95125.28;;;26.45;28.19
8703;BME280;9002;42.708;23.186;2023-10-08T11:05:45;95110.94;;;26.46;27.68
8703;BME280;9002;42.708;23.186;2023-10-08T11:08:17;95116.59;;;26.24;27.44
8703;BME280;9002;42.708;23.186;2023-10-08T11:10:47;95134.53;;;26.47;27.57
8703;BME280;9002;42.708;23.186;2023-10-08T11:13:17;95057.69;;;26.32;27.42
8703;BME280;9002;42.708;23.186;2023-10-08T11:15:46;95113.69;;;26.25;27.88
8703;BME280;9002;42.708;23.186;2023-10-08T11:18:16;95113.75;;;25.51;28.43
8703;BME280;9002;42.708;23.186;2023-10-08T11:20:44;95069.13;;;24.43;29.52
8703;BME280;9002;42.708;23.186;2023-10-08T11:23:11;95127.38;;;24.63;29.58
8703;BME280;9002;42.708;23.186;2023-10-08T11:25:54;95103.22;;;25.25;29.48
8703;BME280;9002;42.708;23.186;2023-10-08T11:28:26;95079.81;;;26.07;28.18
8703;BME280;9002;42.708;23.186;2023-10-08T11:30:54;95098.69;;;26.00;28.65
8703;BME280;9002;42.708;23.186;2023-10-08T11:33:24;95105.34;;;25.33;29.05
8703;BME280;9002;42.708;23.186;2023-10-08T11:36:00;95094.78;;;24.88;29.75
8703;BME280;9002;42.708;23.186;2023-10-08T11:38:27;95064.91;;;24.47;30.73
8703;BME280;9002;42.708;23.186;2023-10-08T11:41:11;95065.44;;;24.44;30.69
8703;BME280;9002;42.708;23.186;2023-10-08T11:43:50;95063.84;;;24.48;30.48
8703;BME280;9002;42.708;23.186;2023-10-08T11:46:21;95074.44;;;24.58;30.44
8703;BME280;9002;42.708;23.186;2023-10-08T11:48:48;95101.97;;;24.62;30.88
8703;BME280;9002;42.708;23.186;2023-10-08T11:51:16;95116.47;;;24.34;31.21
8703;BME280;9002;42.708;23.186;2023-10-08T11:53:43;95115.41;;;24.30;31.53
8703;BME280;9002;42.708;23.186;2023-10-08T11:56:12;95099.00;;;24.18;31.52
8703;BME280;9002;42.708;23.186;2023-10-08T11:58:40;95068.22;;;23.81;31.92
8703;BME280;9002;42.708;23.186;2023-10-08T12:01:10;95106.56;;;23.89;32.01
8703;BME280;9002;42.708;23.186;2023-10-08T12:03:41;95078.81;;;23.81;32.27
8703;BME280;9002;42.708;23.186;2023-10-08T12:06:09;95041.53;;;23.67;32.22
8703;BME280;9002;42.708;23.186;2023-10-08T12:08:41;95081.25;;;24.08;32.24
8703;BME280;9002;42.708;23.186;2023-10-08T12:11:12;95053.78;;;24.55;31.61
8703;BME280;9002;42.708;23.186;2023-10-08T12:13:39;95075.94;;;25.25;30.81
8703;BME280;9002;42.708;23.186;2023-10-08T12:16:13;95068.28;;;26.32;29.08
8703;BME280;9002;42.708;23.186;2023-10-08T12:18:47;95073.38;;;25.79;29.73
8703;BME280;9002;42.708;23.186;2023-10-08T12:21:19;95038.63;;;25.21;30.29
8703;BME280;9002;42.708;23.186;2023-10-08T12:23:46;95085.25;;;24.97;31.36
8703;BME280;9002;42.708;23.186;2023-10-08T12:26:16;95095.59;;;24.98;31.32
8703;BME280;9002;42.708;23.186;2023-10-08T12:28:45;95092.66;;;24.85;31.12
8703;BME280;9002;42.708;23.186;2023-10-08T12:31:14;95055.09;;;24.12;31.86
8703;BME280;9002;42.708;23.186;2023-10-08T12:33:41;95092.66;;;24.19;32.11
8703;BME280;9002;42.708;23.186;2023-10-08T12:36:09;95065.25;;;25.50;30.52
8703;BME280;9002;42.708;23.186;2023-10-08T12:38:40;95069.50;;;26.50;29.64
8703;BME280;9002;42.708;23.186;2023-10-08T12:41:08;95084.59;;;26.10;29.74
8703;BME280;9002;42.708;23.186;2023-10-08T12:43:40;94997.09;;;24.86;30.60
8703;BME280;9002;42.708;23.186;2023-10-08T12:46:11;95002.59;;;25.20;30.40
8703;BME280;9002;42.708;23.186;2023-10-08T12:48:43;95063.84;;;25.78;29.70
8703;BME280;9002;42.708;23.186;2023-10-08T12:51:14;95012.31;;;26.28;29.00
8703;BME280;9002;42.708;23.186;2023-10-08T12:53:41;95066.63;;;27.52;28.37
8703;BME280;9002;42.708;23.186;2023-10-08T12:56:16;95057.81;;;27.56;27.70
8703;BME280;9002;42.708;23.186;2023-10-08T12:58:48;95052.19;;;26.86;28.57
8703;BME280;9002;42.708;23.186;2023-10-08T13:01:15;95062.41;;;27.03;28.56
8703;BME280;9002;42.708;23.186;2023-10-08T13:03:44;95042.19;;;27.07;28.55
8703;BME280;9002;42.708;23.186;2023-10-08T13:06:15;95081.56;;;27.24;28.55
8703;BME280;9002;42.708;23.186;2023-10-08T13:08:48;95071.66;;;27.29;28.00
8703;BME280;9002;42.708;23.186;2023-10-08T13:11:16;95015.84;;;27.11;27.94
8703;BME280;9002;42.708;23.186;2023-10-08T13:13:50;95026.59;;;26.95;28.20
8703;BME280;9002;42.708;23.186;2023-10-08T13:16:17;95064.25;;;26.40;28.70
8703;BME280;9002;42.708;23.186;2023-10-08T13:18:44;95069.66;;;26.92;27.98
8703;BME280;9002;42.708;23.186;2023-10-08T13:21:11;95013.41;;;27.14;27.87
8703;BME280;9002;42.708;23.186;2023-10-08T13:23:38;95033.56;;;27.63;27.22
8703;BME280;9002;42.708;23.186;2023-10-08T13:26:05;95063.69;;;27.53;27.35
8703;BME280;9002;42.708;23.186;2023-10-08T13:28:33;95051.56;;;27.00;28.14
8703;BME280;9002;42.708;23.186;2023-10-08T13:31:02;95024.50;;;27.16;27.60
8703;BME280;9002;42.708;23.186;2023-10-08T13:33:36;95044.84;;;27.92;27.07
8703;BME280;9002;42.708;23.186;2023-10-08T13:36:05;95048.03;;;27.94;27.52
8703;BME280;9002;42.708;23.186;2023-10-08T13:38:34;95007.75;;;26.97;27.99
8703;BME280;9002;42.708;23.186;2023-10-08T13:41:01;95032.69;;;26.38;29.31